Terminal Aerodrome Forecast
Issued by NWS Sioux Falls, SD

Home | Current Version | Previous Version | Text Only | Print | Product List | Glossary On
Versions: 1 2 3 4 5 6 7 8 9 10 11 12 13 14
392
FTUS43 KFSD 092012 AAA
TAFHON
TAF AMD
KHON 092012Z 0920/1018 03005KT 5SM -SN BR BKN035
     FM100100 VRB03KT P6SM BKN040
     FM101300 10009KT 3SM -SN OVC030
     FM101500 10010KT 1 1/2SM -SN OVC015=

USA.gov is the U.S. government's official web portal to all federal, state and local government web resources and services.